Latest Coastal Weather Observations for Mandora

IDW60701

Issued at 3:33 pm WST Thursday 23 November 2017 (issued every 10 minutes, with the page automatically refreshed every 10 minutes)

About coastal observations | Map of coastal stations | Coastal observations for WA | Marine services | Other Formats
Station Details ID: 004019 Name: MANDORA Lat: -19.74 Lon: 120.84 Height: 7.5 m
Data from the previous 72 hours. | See also: Recent months at Mandora
Date/Time
WST
Temp
°C
Wind Pressure Rain since
9am
mm
Weather Cloud Vis
km
Sea
Height
m
Swell
Dir  Spd
kts
Gust
kts
hPa Trend Height
m
Period
s
Dir
23/03:30pm 33.3 NW 11 15 1002.3 - 0.0 - - - - - - -
23/03:00pm 34.2 NW 12 17 1002.3 - 0.0 - - - - - - -
23/02:30pm 34.5 NNW 12 18 1002.4 - 0.0 - - - - - - -
23/02:00pm 33.9 NNW 12 16 1002.8 - 0.0 - - - - - - -
23/01:30pm 34.0 NNW 12 16 1003.2 - 0.0 - - - - - - -
23/01:00pm 33.4 NNW 11 17 1003.6 - 0.0 - - - - - - -
23/12:30pm 34.3 NNW 9 13 1003.9 - 0.0 - - - - - - -
23/12:00pm 34.1 NNW 10 14 1004.3 - 0.0 - - - - - - -
23/11:30am 33.4 NNW 11 17 1004.7 - 0.0 - - - - - - -
23/11:00am 34.4 NNW 10 17 1004.9 - 0.0 - - - - - - -
23/10:30am 37.6 ENE 5 10 1005.2 - 0.0 - - - - - - -
23/10:00am 36.9 ENE 7 13 1005.5 - 0.0 - - - - - - -
23/09:30am 36.3 ESE 7 13 1005.8 - 0.0 - - - - - - -
23/09:00am 34.9 E 6 9 1005.9 - 0.0 - - - - - - -
23/08:30am 33.0 SE 6 10 1006.1 - 0.0 - - - - - - -
23/08:00am 32.4 S 6 9 1006.3 - 0.0 - - - - - - -
23/07:30am 30.7 SSW 8 12 1006.3 - 0.0 - - - - - - -
23/07:00am 29.2 SW 8 11 1006.3 - 0.0 - - - - - - -
23/06:30am 27.8 SW 8 10 1006.0 - 0.0 - - - - - - -
23/06:00am 25.9 SSW 4 5 1005.7 - 0.0 - - - - - - -
23/05:30am 25.1 SW 4 4 1005.4 - 0.0 - - - - - - -
23/05:00am 25.4 SW 4 5 1005.2 - 0.0 - - - - - - -
23/04:30am 26.1 W 5 6 1005.1 - 0.0 - - - - - - -
23/04:00am 26.5 W 5 8 1004.9 - 0.0 - - - - - - -
23/03:30am 26.8 WNW 7 11 1004.8 - 0.0 - - - - - - -
23/03:00am 26.8 WNW 7 10 1005.0 - 0.0 - - - - - - -
23/02:30am 27.0 NW 6 11 1005.1 - 0.0 - - - - - - -
23/02:00am 27.2 NW 7 10 1004.9 - 0.0 - - - - - - -
23/01:30am 27.1 NW 7 11 1004.9 - 0.0 - - - - - - -
23/01:00am 27.2 NW 8 12 1005.0 - 0.0 - - - - - - -
23/12:30am 26.6 NNW 1 4 1005.3 - 0.0 - - - - - - -
23/12:00am 26.9 WNW 5 7 1005.3 - 0.0 - - - - - - -
 
Date/Time
WST
Temp
°C
Wind Pressure Rain since
9am
mm
Weather Cloud Vis
km
Sea
Height
m
Swell
Dir  Spd
kts
Gust
kts
hPa Trend Height
m
Period
s
Dir
22/11:30pm 26.8 NW 5 6 1005.3 - 0.0 - - - - - - -
22/11:00pm 27.2 WNW 5 7 1005.4 - 0.0 - - - - - - -
22/10:30pm 27.5 NNW 3 5 1005.5 - 0.0 - - - - - - -
22/10:00pm 27.4 NNE 4 6 1005.5 - 0.0 - - - - - - -
22/09:30pm 27.6 WNW 5 7 1004.8 - 0.0 - - - - - - -
22/09:00pm 27.8 WNW 6 8 1004.3 - 0.0 - - - - - - -
22/08:30pm 27.9 WNW 6 8 1004.0 - 0.0 - - - - - - -
22/08:00pm 28.1 WNW 4 6 1003.8 - 0.0 - - - - - - -
22/07:30pm 28.4 NW 5 8 1003.4 - 0.0 - - - - - - -
22/07:00pm 28.6 WNW 7 9 1002.6 - 0.0 - - - - - - -
22/06:30pm 29.0 WNW 7 12 1002.2 - 0.0 - - - - - - -
22/06:00pm 29.8 WNW 9 13 1001.6 - 0.0 - - - - - - -
22/05:30pm 30.9 NW 10 15 1001.5 - 0.0 - - - - - - -
22/05:00pm 32.2 WNW 10 15 1001.1 - 0.0 - - - - - - -
22/04:30pm 32.7 WNW 11 18 1001.0 - 0.0 - - - - - - -
22/04:00pm 32.5 NW 14 19 1000.9 - 0.0 - - - - - - -
22/03:30pm 33.0 NW 13 19 1000.9 - 0.0 - - - - - - -
22/03:00pm 33.7 NW 13 18 1001.2 - 0.0 - - - - - - -
22/02:30pm 34.3 NW 13 20 1001.4 - 0.0 - - - - - - -
22/02:00pm 35.0 NW 13 18 1001.7 - 0.0 - - - - - - -
22/01:30pm 35.4 NW 13 21 1002.2 - 0.0 - - - - - - -
22/01:00pm 35.7 NW 14 20 1002.5 - 0.0 - - - - - - -
22/12:30pm 34.6 NW 13 18 1002.8 - 0.0 - - - - - - -
22/12:00pm 34.6 NW 13 19 1003.3 - 0.0 - - - - - - -
22/11:30am 34.0 NW 12 18 1003.8 - 0.0 - - - - - - -
22/11:00am 34.5 NW 11 17 1004.1 - 0.0 - - - - - - -
22/10:30am 33.7 WNW 12 17 1004.5 - 0.0 - - - - - - -
22/10:00am 33.8 NW 11 16 1005.0 - 0.0 - - - - - - -
22/09:30am 32.8 WNW 9 14 1005.4 - 0.0 - - - - - - -
22/09:00am 32.4 WNW 10 15 1005.5 - 0.0 - - - - - - -
22/08:30am 32.4 WNW 10 15 1005.7 - 0.0 - - - - - - -
22/08:00am 31.3 WNW 10 14 1005.6 - 0.0 - - - - - - -
22/07:30am 30.6 WNW 8 13 1005.5 - 0.0 - - - - - - -
22/07:00am 29.5 WNW 9 12 1005.5 - 0.0 - - - - - - -
22/06:30am 28.5 WNW 9 13 1005.2 - 0.0 - - - - - - -
22/06:00am 27.0 WNW 6 8 1005.3 - 0.0 - - - - - - -
22/05:30am 25.6 WNW 5 8 1004.8 - 0.0 - - - - - - -
22/05:00am 24.9 NW 6 8 1004.7 - 0.0 - - - - - - -
22/04:30am 25.5 WSW 1 4 1005.0 - 0.0 - - - - - - -
22/04:00am 26.2 WSW 5 7 1004.8 - 0.0 - - - - - - -
22/03:30am 26.5 W 5 8 1004.6 - 0.0 - - - - - - -
22/03:00am 26.7 W 8 11 1004.5 - 0.0 - - - - - - -
22/02:30am 26.9 WSW 9 13 1005.2 - 0.0 - - - - - - -
22/02:00am 27.1 W 9 13 1004.6 - 0.0 - - - - - - -
22/01:30am 27.1 WNW 9 13 1004.7 - 0.0 - - - - - - -
22/01:00am 27.0 WNW 8 13 1004.9 - 0.0 - - - - - - -
22/12:30am 27.0 WNW 7 9 1005.2 - 0.0 - - - - - - -
22/12:00am 26.9 WNW 7 10 1005.3 - 0.0 - - - - - - -
 
Date/Time
WST
Temp
°C
Wind Pressure Rain since
9am
mm
Weather Cloud Vis
km
Sea
Height
m
Swell
Dir  Spd
kts
Gust
kts
hPa Trend Height
m
Period
s
Dir
21/11:30pm 26.6 WNW 6 9 1005.5 - 0.0 - - - - - - -
21/11:00pm 26.5 WNW 5 8 1005.7 - 0.0 - - - - - - -
21/10:30pm 26.9 WNW 5 8 1005.8 - 0.0 - - - - - - -
21/10:00pm 27.0 WNW 6 8 1005.8 - 0.0 - - - - - - -
21/09:30pm 27.3 WNW 7 9 1005.7 - 0.0 - - - - - - -
21/09:00pm 27.4 WNW 6 8 1005.6 - 0.0 - - - - - - -
21/08:30pm 27.6 WNW 6 9 1005.4 - 0.0 - - - - - - -
21/08:00pm 27.8 NW 7 10 1005.3 - 0.0 - - - - - - -
21/07:30pm 28.0 NW 6 9 1004.9 - 0.0 - - - - - - -
21/07:00pm 28.3 NW 8 12 1004.4 - 0.0 - - - - - - -
21/06:30pm 28.7 WNW 8 14 1004.1 - 0.0 - - - - - - -
21/06:00pm 29.4 NW 9 15 1003.7 - 0.0 - - - - - - -
21/05:30pm 30.1 NW 12 17 1003.3 - 0.0 - - - - - - -
21/05:00pm 30.1 NW 12 16 1003.3 - 0.0 - - - - - - -
21/04:30pm 31.1 NW 13 18 1003.1 - 0.0 - - - - - - -
21/04:00pm 31.6 NW 13 18 1003.1 - 0.0 - - - - - - -
21/03:30pm 32.7 NW 12 18 1003.3 - 0.0 - - - - - - -
21/03:00pm 32.8 NW 13 18 1003.4 - 0.0 - - - - - - -
21/02:30pm 32.8 NW 14 19 1003.6 - 0.0 - - - - - - -
21/02:00pm 33.9 NW 13 19 1003.9 - 0.0 - - - - - - -
21/01:30pm 32.7 NNW 14 21 1004.2 - 0.0 - - - - - - -
21/01:00pm 34.0 NNW 13 20 1004.5 - 0.0 - - - - - - -
21/12:30pm 33.7 NW 13 18 1004.9 - 0.0 - - - - - - -
21/12:00pm 33.7 NW 11 17 1005.2 - 0.0 - - - - - - -
21/11:30am 33.1 NW 12 17 1005.6 - 0.0 - - - - - - -
21/11:00am 33.1 NW 11 19 1006.1 - 0.0 - - - - - - -
21/10:30am 33.0 WNW 11 15 1006.3 - 0.0 - - - - - - -
21/10:00am 33.0 WNW 11 15 1006.6 - 0.0 - - - - - - -
21/09:30am 33.5 WNW 9 14 1006.9 - 0.0 - - - - - - -
21/09:00am 32.8 NW 9 14 1007.2 - 0.0 - - - - - - -
21/08:30am 32.6 WNW 9 13 1007.1 - 0.0 - - - - - - -
21/08:00am 31.6 WNW 10 14 1007.2 - 0.0 - - - - - - -
21/07:30am 31.1 WNW 9 13 1007.2 - 0.0 - - - - - - -
21/07:00am 29.9 W 8 11 1007.0 - 0.0 - - - - - - -
21/06:30am 28.5 W 9 13 1006.7 - 0.0 - - - - - - -
21/06:00am 26.7 W 5 8 1006.6 - 0.0 - - - - - - -
21/05:30am 26.1 W 6 8 1006.3 - 0.0 - - - - - - -
21/05:00am 26.4 W 7 9 1006.1 - 0.0 - - - - - - -
21/04:30am 26.4 WSW 5 6 1005.9 - 0.0 - - - - - - -
21/04:00am 27.1 W 6 8 1005.4 - 0.0 - - - - - - -
21/03:30am 27.0 W 5 8 1005.3 - 0.0 - - - - - - -
21/03:00am 26.9 W 6 8 1005.1 - 0.0 - - - - - - -
21/02:30am 27.0 W 7 11 1005.1 - 0.0 - - - - - - -
21/02:00am 27.0 W 6 8 1005.3 - 0.0 - - - - - - -
21/01:30am 27.1 W 7 9 1005.4 - 0.0 - - - - - - -
21/01:00am 27.1 WSW 6 8 1006.1 - 0.0 - - - - - - -
21/12:30am 27.3 WNW 7 10 1006.2 - 0.0 - - - - - - -
21/12:00am 27.5 W 8 11 1006.8 - 0.0 - - - - - - -
 
Date/Time
WST
Temp
°C
Wind Pressure Rain since
9am
mm
Weather Cloud Vis
km
Sea
Height
m
Swell
Dir  Spd
kts
Gust
kts
hPa Trend Height
m
Period
s
Dir
20/11:30pm 27.4 WNW 8 11 1007.3 - 0.0 - - - - - - -
20/11:00pm 27.3 WNW 8 10 1007.4 - 0.0 - - - - - - -
20/10:30pm 27.3 WNW 8 11 1007.5 - 0.0 - - - - - - -
20/10:00pm 27.4 WNW 7 10 1007.8 - 0.0 - - - - - - -
20/09:30pm 27.5 WNW 7 10 1007.7 - 0.0 - - - - - - -
20/09:00pm 27.6 WNW 7 11 1007.6 - 0.0 - - - - - - -
20/08:30pm 27.8 WNW 7 11 1007.3 - 0.0 - - - - - - -
20/08:00pm 28.0 WNW 8 11 1007.0 - 0.0 - - - - - - -
20/07:30pm 28.0 WNW 8 13 1006.8 - 0.0 - - - - - - -
20/07:00pm 28.1 WNW 8 12 1006.4 - 0.0 - - - - - - -
20/06:30pm 28.4 WNW 9 11 1006.2 - 0.0 - - - - - - -
20/06:00pm 28.9 WNW 9 14 1006.0 - 0.0 - - - - - - -
20/05:30pm 29.2 WNW 11 16 1005.8 - 0.0 - - - - - - -
20/05:00pm 29.6 WNW 12 16 1005.7 - 0.0 - - - - - - -
20/04:30pm 30.3 WNW 10 16 1005.5 - 0.0 - - - - - - -
20/04:00pm 32.0 WNW 12 18 1005.5 - 0.0 - - - - - - -

Other Formats:

Comma delimited format used in spreadsheet applications
http://www.bom.gov.au/fwo/IDW60701/IDW60701.94200.axf

JavaScript Object Notation format (JSON) in row-major order
http://www.bom.gov.au/fwo/IDW60701/IDW60701.94200.json